sensor_id;sensor_type;location;lat;lon;timestamp;P1;durP1;ratioP1;P2;durP2;ratioP2
17451;SDS011;8843;48.838;9.324;2022-11-27T00:00:41;8.00;;;7.07;;
17451;SDS011;8843;48.838;9.324;2022-11-27T00:03:09;8.53;;;6.77;;
17451;SDS011;8843;48.838;9.324;2022-11-27T00:05:36;7.33;;;6.63;;
17451;SDS011;8843;48.838;9.324;2022-11-27T00:08:03;7.70;;;6.90;;
17451;SDS011;8843;48.838;9.324;2022-11-27T00:10:30;11.30;;;7.73;;
17451;SDS011;8843;48.838;9.324;2022-11-27T00:12:56;9.20;;;7.27;;
17451;SDS011;8843;48.838;9.324;2022-11-27T00:15:25;10.70;;;6.93;;
17451;SDS011;8843;48.838;9.324;2022-11-27T00:17:52;7.83;;;6.23;;
17451;SDS011;8843;48.838;9.324;2022-11-27T00:20:18;9.17;;;7.53;;
17451;SDS011;8843;48.838;9.324;2022-11-27T00:22:45;10.37;;;6.97;;
17451;SDS011;8843;48.838;9.324;2022-11-27T00:25:12;9.07;;;7.60;;
17451;SDS011;8843;48.838;9.324;2022-11-27T00:27:39;8.23;;;6.97;;
17451;SDS011;8843;48.838;9.324;2022-11-27T00:30:07;8.50;;;7.70;;
17451;SDS011;8843;48.838;9.324;2022-11-27T00:32:35;8.13;;;6.83;;
17451;SDS011;8843;48.838;9.324;2022-11-27T00:35:02;7.67;;;6.93;;
17451;SDS011;8843;48.838;9.324;2022-11-27T00:37:30;7.73;;;6.93;;
17451;SDS011;8843;48.838;9.324;2022-11-27T00:39:57;9.13;;;6.67;;
17451;SDS011;8843;48.838;9.324;2022-11-27T00:42:24;7.97;;;7.00;;
17451;SDS011;8843;48.838;9.324;2022-11-27T00:44:50;7.50;;;6.70;;
17451;SDS011;8843;48.838;9.324;2022-11-27T00:47:18;9.57;;;7.20;;
17451;SDS011;8843;48.838;9.324;2022-11-27T00:49:46;7.37;;;6.33;;
17451;SDS011;8843;48.838;9.324;2022-11-27T00:52:13;8.43;;;6.77;;
17451;SDS011;8843;48.838;9.324;2022-11-27T00:54:40;7.70;;;6.90;;
17451;SDS011;8843;48.838;9.324;2022-11-27T00:57:07;7.73;;;6.57;;
17451;SDS011;8843;48.838;9.324;2022-11-27T00:59:34;9.50;;;6.63;;
17451;SDS011;8843;48.838;9.324;2022-11-27T01:02:00;7.40;;;6.63;;
17451;SDS011;8843;48.838;9.324;2022-11-27T01:04:27;8.17;;;5.97;;
17451;SDS011;8843;48.838;9.324;2022-11-27T01:06:56;6.17;;;5.57;;
17451;SDS011;8843;48.838;9.324;2022-11-27T01:09:22;6.87;;;6.20;;
17451;SDS011;8843;48.838;9.324;2022-11-27T01:11:49;6.53;;;5.77;;
17451;SDS011;8843;48.838;9.324;2022-11-27T01:14:16;9.47;;;6.90;;
17451;SDS011;8843;48.838;9.324;2022-11-27T01:16:44;6.87;;;6.17;;
17451;SDS011;8843;48.838;9.324;2022-11-27T01:19:11;7.07;;;6.37;;
17451;SDS011;8843;48.838;9.324;2022-11-27T01:21:39;6.80;;;6.00;;
17451;SDS011;8843;48.838;9.324;2022-11-27T01:24:08;6.73;;;6.10;;
17451;SDS011;8843;48.838;9.324;2022-11-27T01:26:37;8.67;;;6.77;;
17451;SDS011;8843;48.838;9.324;2022-11-27T01:29:03;7.17;;;6.17;;
17451;SDS011;8843;48.838;9.324;2022-11-27T01:31:31;7.40;;;6.13;;
17451;SDS011;8843;48.838;9.324;2022-11-27T01:34:00;8.33;;;6.80;;
17451;SDS011;8843;48.838;9.324;2022-11-27T01:36:28;7.93;;;6.63;;
17451;SDS011;8843;48.838;9.324;2022-11-27T01:38:56;9.17;;;7.00;;
17451;SDS011;8843;48.838;9.324;2022-11-27T01:41:26;12.63;;;8.30;;
17451;SDS011;8843;48.838;9.324;2022-11-27T01:43:54;7.90;;;6.33;;
17451;SDS011;8843;48.838;9.324;2022-11-27T01:46:25;10.33;;;6.43;;
17451;SDS011;8843;48.838;9.324;2022-11-27T01:49:02;9.90;;;5.97;;
17451;SDS011;8843;48.838;9.324;2022-11-27T01:51:43;15.47;;;6.53;;
17451;SDS011;8843;48.838;9.324;2022-11-27T01:54:12;6.93;;;5.50;;
17451;SDS011;8843;48.838;9.324;2022-11-27T01:56:43;8.80;;;6.30;;
17451;SDS011;8843;48.838;9.324;2022-11-27T01:59:13;11.17;;;5.83;;
17451;SDS011;8843;48.838;9.324;2022-11-27T02:01:42;6.97;;;6.07;;
17451;SDS011;8843;48.838;9.324;2022-11-27T02:04:09;7.57;;;6.63;;
17451;SDS011;8843;48.838;9.324;2022-11-27T02:06:37;7.47;;;6.00;;
17451;SDS011;8843;48.838;9.324;2022-11-27T02:09:04;7.67;;;6.20;;
17451;SDS011;8843;48.838;9.324;2022-11-27T02:11:33;8.40;;;6.80;;
17451;SDS011;8843;48.838;9.324;2022-11-27T02:14:08;7.30;;;6.53;;
17451;SDS011;8843;48.838;9.324;2022-11-27T02:16:42;7.70;;;6.60;;
17451;SDS011;8843;48.838;9.324;2022-11-27T02:19:17;7.53;;;6.00;;
17451;SDS011;8843;48.838;9.324;2022-11-27T02:21:59;8.83;;;6.57;;
17451;SDS011;8843;48.838;9.324;2022-11-27T02:24:46;5.90;;;5.30;;
17451;SDS011;8843;48.838;9.324;2022-11-27T02:30:21;6.97;;;6.27;;
17451;SDS011;8843;48.838;9.324;2022-11-27T02:32:48;9.13;;;7.40;;
17451;SDS011;8843;48.838;9.324;2022-11-27T02:35:22;8.10;;;6.60;;
17451;SDS011;8843;48.838;9.324;2022-11-27T02:37:55;11.53;;;6.40;;
17451;SDS011;8843;48.838;9.324;2022-11-27T02:40:26;6.60;;;6.00;;
17451;SDS011;8843;48.838;9.324;2022-11-27T02:43:00;7.47;;;6.33;;
17451;SDS011;8843;48.838;9.324;2022-11-27T02:45:34;7.53;;;5.93;;
17451;SDS011;8843;48.838;9.324;2022-11-27T02:48:05;7.60;;;5.10;;
17451;SDS011;8843;48.838;9.324;2022-11-27T02:50:33;9.27;;;5.77;;
17451;SDS011;8843;48.838;9.324;2022-11-27T02:53:03;7.53;;;5.80;;
17451;SDS011;8843;48.838;9.324;2022-11-27T02:55:33;6.77;;;6.03;;
17451;SDS011;8843;48.838;9.324;2022-11-27T02:58:04;9.50;;;6.17;;
17451;SDS011;8843;48.838;9.324;2022-11-27T03:00:37;6.40;;;4.90;;
17451;SDS011;8843;48.838;9.324;2022-11-27T03:03:06;5.67;;;5.17;;
17451;SDS011;8843;48.838;9.324;2022-11-27T03:05:38;6.07;;;4.87;;
17451;SDS011;8843;48.838;9.324;2022-11-27T03:08:08;6.83;;;5.07;;
17451;SDS011;8843;48.838;9.324;2022-11-27T03:10:41;9.17;;;5.07;;
17451;SDS011;8843;48.838;9.324;2022-11-27T03:13:13;6.47;;;5.10;;
17451;SDS011;8843;48.838;9.324;2022-11-27T03:15:43;7.47;;;5.33;;
17451;SDS011;8843;48.838;9.324;2022-11-27T03:18:26;5.83;;;4.83;;
17451;SDS011;8843;48.838;9.324;2022-11-27T03:20:59;6.27;;;4.87;;
17451;SDS011;8843;48.838;9.324;2022-11-27T03:23:30;6.37;;;4.97;;
17451;SDS011;8843;48.838;9.324;2022-11-27T03:25:57;5.93;;;5.33;;
17451;SDS011;8843;48.838;9.324;2022-11-27T03:28:24;7.70;;;4.90;;
17451;SDS011;8843;48.838;9.324;2022-11-27T03:30:54;5.83;;;4.87;;
17451;SDS011;8843;48.838;9.324;2022-11-27T03:33:21;8.10;;;4.47;;
17451;SDS011;8843;48.838;9.324;2022-11-27T03:35:49;5.50;;;4.93;;
17451;SDS011;8843;48.838;9.324;2022-11-27T03:38:17;4.80;;;4.40;;
17451;SDS011;8843;48.838;9.324;2022-11-27T03:40:44;5.07;;;4.57;;
17451;SDS011;8843;48.838;9.324;2022-11-27T03:43:21;5.77;;;4.63;;
17451;SDS011;8843;48.838;9.324;2022-11-27T03:45:51;5.40;;;4.90;;
17451;SDS011;8843;48.838;9.324;2022-11-27T03:48:27;7.67;;;4.73;;
17451;SDS011;8843;48.838;9.324;2022-11-27T03:51:02;5.70;;;4.30;;
17451;SDS011;8843;48.838;9.324;2022-11-27T03:53:39;6.40;;;4.50;;
17451;SDS011;8843;48.838;9.324;2022-11-27T03:56:16;8.53;;;4.67;;
17451;SDS011;8843;48.838;9.324;2022-11-27T03:58:53;5.20;;;4.70;;
17451;SDS011;8843;48.838;9.324;2022-11-27T04:01:25;7.07;;;4.60;;
17451;SDS011;8843;48.838;9.324;2022-11-27T04:03:53;7.07;;;4.70;;
17451;SDS011;8843;48.838;9.324;2022-11-27T04:06:20;5.43;;;4.23;;
17451;SDS011;8843;48.838;9.324;2022-11-27T04:08:47;7.60;;;4.83;;
17451;SDS011;8843;48.838;9.324;2022-11-27T04:11:14;6.53;;;5.23;;
17451;SDS011;8843;48.838;9.324;2022-11-27T04:13:41;4.67;;;4.27;;
17451;SDS011;8843;48.838;9.324;2022-11-27T04:16:08;5.60;;;5.00;;
17451;SDS011;8843;48.838;9.324;2022-11-27T04:18:37;5.10;;;4.60;;
17451;SDS011;8843;48.838;9.324;2022-11-27T04:21:04;5.30;;;4.80;;
17451;SDS011;8843;48.838;9.324;2022-11-27T04:23:31;4.70;;;4.20;;
17451;SDS011;8843;48.838;9.324;2022-11-27T04:25:58;6.27;;;4.63;;
17451;SDS011;8843;48.838;9.324;2022-11-27T04:28:24;5.67;;;4.87;;
17451;SDS011;8843;48.838;9.324;2022-11-27T04:30:51;5.57;;;4.30;;
17451;SDS011;8843;48.838;9.324;2022-11-27T04:33:19;5.13;;;4.63;;
17451;SDS011;8843;48.838;9.324;2022-11-27T04:35:48;5.53;;;4.60;;
17451;SDS011;8843;48.838;9.324;2022-11-27T04:38:15;5.63;;;5.03;;
17451;SDS011;8843;48.838;9.324;2022-11-27T04:40:42;5.13;;;4.63;;
17451;SDS011;8843;48.838;9.324;2022-11-27T04:43:09;5.10;;;4.60;;
17451;SDS011;8843;48.838;9.324;2022-11-27T04:45:36;6.33;;;4.37;;
17451;SDS011;8843;48.838;9.324;2022-11-27T04:48:03;4.87;;;4.37;;
17451;SDS011;8843;48.838;9.324;2022-11-27T04:50:31;7.53;;;4.37;;
17451;SDS011;8843;48.838;9.324;2022-11-27T04:52:59;6.13;;;4.70;;
17451;SDS011;8843;48.838;9.324;2022-11-27T04:55:26;7.57;;;4.67;;
17451;SDS011;8843;48.838;9.324;2022-11-27T04:57:53;7.67;;;4.00;;
17451;SDS011;8843;48.838;9.324;2022-11-27T05:00:20;6.93;;;4.67;;
17451;SDS011;8843;48.838;9.324;2022-11-27T05:02:47;5.50;;;4.00;;
17451;SDS011;8843;48.838;9.324;2022-11-27T05:05:14;4.50;;;4.03;;
17451;SDS011;8843;48.838;9.324;2022-11-27T05:07:41;5.13;;;4.63;;
17451;SDS011;8843;48.838;9.324;2022-11-27T05:10:10;6.00;;;4.73;;
17451;SDS011;8843;48.838;9.324;2022-11-27T05:12:37;4.70;;;4.30;;
17451;SDS011;8843;48.838;9.324;2022-11-27T05:15:04;6.17;;;4.37;;
17451;SDS011;8843;48.838;9.324;2022-11-27T05:17:32;8.53;;;4.83;;
17451;SDS011;8843;48.838;9.324;2022-11-27T05:19:59;5.40;;;4.90;;
17451;SDS011;8843;48.838;9.324;2022-11-27T05:22:26;6.43;;;4.87;;
17451;SDS011;8843;48.838;9.324;2022-11-27T05:24:53;4.70;;;4.10;;
17451;SDS011;8843;48.838;9.324;2022-11-27T05:27:21;5.20;;;4.67;;
17451;SDS011;8843;48.838;9.324;2022-11-27T05:29:48;4.97;;;4.40;;
17451;SDS011;8843;48.838;9.324;2022-11-27T05:32:15;4.37;;;3.80;;
17451;SDS011;8843;48.838;9.324;2022-11-27T05:34:42;6.83;;;4.70;;
17451;SDS011;8843;48.838;9.324;2022-11-27T05:37:09;5.03;;;4.27;;
17451;SDS011;8843;48.838;9.324;2022-11-27T05:39:36;7.37;;;5.00;;
17451;SDS011;8843;48.838;9.324;2022-11-27T05:42:03;5.40;;;4.37;;
17451;SDS011;8843;48.838;9.324;2022-11-27T05:44:32;4.43;;;4.03;;
17451;SDS011;8843;48.838;9.324;2022-11-27T05:46:59;5.07;;;4.20;;
17451;SDS011;8843;48.838;9.324;2022-11-27T05:49:25;4.97;;;4.47;;
17451;SDS011;8843;48.838;9.324;2022-11-27T05:51:52;6.83;;;3.90;;
17451;SDS011;8843;48.838;9.324;2022-11-27T05:54:19;5.07;;;4.57;;
17451;SDS011;8843;48.838;9.324;2022-11-27T05:56:46;5.00;;;4.43;;
17451;SDS011;8843;48.838;9.324;2022-11-27T05:59:13;4.63;;;4.23;;
17451;SDS011;8843;48.838;9.324;2022-11-27T06:01:41;5.23;;;4.17;;
17451;SDS011;8843;48.838;9.324;2022-11-27T06:04:08;5.00;;;4.37;;
17451;SDS011;8843;48.838;9.324;2022-11-27T06:06:35;6.40;;;4.63;;
17451;SDS011;8843;48.838;9.324;2022-11-27T06:09:02;4.47;;;4.07;;
17451;SDS011;8843;48.838;9.324;2022-11-27T06:11:29;4.40;;;4.00;;
17451;SDS011;8843;48.838;9.324;2022-11-27T06:13:56;4.87;;;4.30;;
17451;SDS011;8843;48.838;9.324;2022-11-27T06:16:23;4.60;;;4.20;;
17451;SDS011;8843;48.838;9.324;2022-11-27T06:18:52;4.87;;;4.20;;
17451;SDS011;8843;48.838;9.324;2022-11-27T06:21:20;4.30;;;4.00;;
17451;SDS011;8843;48.838;9.324;2022-11-27T06:23:51;4.73;;;4.33;;
17451;SDS011;8843;48.838;9.324;2022-11-27T06:26:20;4.53;;;4.03;;
17451;SDS011;8843;48.838;9.324;2022-11-27T06:28:49;4.73;;;4.33;;
17451;SDS011;8843;48.838;9.324;2022-11-27T06:31:16;5.20;;;4.67;;
17451;SDS011;8843;48.838;9.324;2022-11-27T06:33:44;3.97;;;3.67;;
17451;SDS011;8843;48.838;9.324;2022-11-27T06:36:13;5.47;;;4.30;;
17451;SDS011;8843;48.838;9.324;2022-11-27T06:38:40;5.53;;;4.60;;
17451;SDS011;8843;48.838;9.324;2022-11-27T06:41:08;5.30;;;4.80;;
17451;SDS011;8843;48.838;9.324;2022-11-27T06:43:36;4.67;;;4.23;;
17451;SDS011;8843;48.838;9.324;2022-11-27T06:46:03;4.97;;;4.47;;
17451;SDS011;8843;48.838;9.324;2022-11-27T06:48:32;5.40;;;4.10;;
17451;SDS011;8843;48.838;9.324;2022-11-27T06:51:00;5.03;;;4.50;;
17451;SDS011;8843;48.838;9.324;2022-11-27T06:53:29;4.63;;;4.23;;
17451;SDS011;8843;48.838;9.324;2022-11-27T06:55:57;4.47;;;4.07;;
17451;SDS011;8843;48.838;9.324;2022-11-27T06:58:23;4.50;;;4.03;;
17451;SDS011;8843;48.838;9.324;2022-11-27T07:00:55;4.73;;;4.23;;
17451;SDS011;8843;48.838;9.324;2022-11-27T07:03:23;4.60;;;4.17;;
17451;SDS011;8843;48.838;9.324;2022-11-27T07:05:49;4.23;;;3.90;;
17451;SDS011;8843;48.838;9.324;2022-11-27T07:08:17;4.60;;;4.20;;
17451;SDS011;8843;48.838;9.324;2022-11-27T07:10:45;6.70;;;4.07;;
17451;SDS011;8843;48.838;9.324;2022-11-27T07:13:12;4.27;;;3.83;;
17451;SDS011;8843;48.838;9.324;2022-11-27T07:15:39;5.03;;;4.47;;
17451;SDS011;8843;48.838;9.324;2022-11-27T07:18:06;4.83;;;3.93;;
17451;SDS011;8843;48.838;9.324;2022-11-27T07:20:33;4.33;;;3.97;;
17451;SDS011;8843;48.838;9.324;2022-11-27T07:22:59;5.53;;;4.17;;
17451;SDS011;8843;48.838;9.324;2022-11-27T07:25:26;4.07;;;3.67;;
17451;SDS011;8843;48.838;9.324;2022-11-27T07:27:55;3.90;;;3.60;;
17451;SDS011;8843;48.838;9.324;2022-11-27T07:30:22;5.23;;;4.73;;
17451;SDS011;8843;48.838;9.324;2022-11-27T07:32:49;4.77;;;4.37;;
17451;SDS011;8843;48.838;9.324;2022-11-27T07:35:16;4.37;;;3.87;;
17451;SDS011;8843;48.838;9.324;2022-11-27T07:37:43;4.43;;;4.00;;
17451;SDS011;8843;48.838;9.324;2022-11-27T07:40:10;4.70;;;4.20;;
17451;SDS011;8843;48.838;9.324;2022-11-27T07:42:38;4.60;;;4.10;;
17451;SDS011;8843;48.838;9.324;2022-11-27T07:45:07;4.57;;;4.00;;
17451;SDS011;8843;48.838;9.324;2022-11-27T07:47:35;5.87;;;4.60;;
17451;SDS011;8843;48.838;9.324;2022-11-27T07:50:03;5.30;;;4.70;;
17451;SDS011;8843;48.838;9.324;2022-11-27T07:52:32;5.27;;;4.27;;
17451;SDS011;8843;48.838;9.324;2022-11-27T07:55:00;4.47;;;4.07;;
17451;SDS011;8843;48.838;9.324;2022-11-27T07:57:27;4.63;;;4.23;;
17451;SDS011;8843;48.838;9.324;2022-11-27T07:59:54;5.13;;;4.53;;
17451;SDS011;8843;48.838;9.324;2022-11-27T08:02:22;5.40;;;4.63;;
17451;SDS011;8843;48.838;9.324;2022-11-27T08:04:50;5.20;;;4.20;;
17451;SDS011;8843;48.838;9.324;2022-11-27T08:07:17;5.07;;;4.53;;
17451;SDS011;8843;48.838;9.324;2022-11-27T08:09:44;4.97;;;4.47;;
17451;SDS011;8843;48.838;9.324;2022-11-27T08:12:11;5.60;;;4.67;;
17451;SDS011;8843;48.838;9.324;2022-11-27T08:14:38;5.57;;;4.70;;
17451;SDS011;8843;48.838;9.324;2022-11-27T08:17:05;4.80;;;4.40;;
17451;SDS011;8843;48.838;9.324;2022-11-27T08:19:33;7.53;;;5.33;;
17451;SDS011;8843;48.838;9.324;2022-11-27T08:22:00;6.40;;;5.13;;
17451;SDS011;8843;48.838;9.324;2022-11-27T08:24:27;6.57;;;5.50;;
17451;SDS011;8843;48.838;9.324;2022-11-27T08:26:54;6.57;;;5.87;;
17451;SDS011;8843;48.838;9.324;2022-11-27T08:29:21;7.57;;;5.63;;
17451;SDS011;8843;48.838;9.324;2022-11-27T08:31:48;7.37;;;6.53;;
17451;SDS011;8843;48.838;9.324;2022-11-27T08:34:15;8.00;;;6.47;;
17451;SDS011;8843;48.838;9.324;2022-11-27T08:36:43;8.17;;;6.83;;
17451;SDS011;8843;48.838;9.324;2022-11-27T08:39:10;10.67;;;6.90;;
17451;SDS011;8843;48.838;9.324;2022-11-27T08:41:37;9.93;;;7.57;;
17451;SDS011;8843;48.838;9.324;2022-11-27T08:44:04;8.37;;;6.70;;
17451;SDS011;8843;48.838;9.324;2022-11-27T08:46:31;9.47;;;7.70;;
17451;SDS011;8843;48.838;9.324;2022-11-27T08:48:58;9.07;;;8.17;;
17451;SDS011;8843;48.838;9.324;2022-11-27T08:51:25;10.27;;;8.57;;
17451;SDS011;8843;48.838;9.324;2022-11-27T08:53:53;7.93;;;7.13;;
17451;SDS011;8843;48.838;9.324;2022-11-27T08:56:21;12.50;;;7.10;;
17451;SDS011;8843;48.838;9.324;2022-11-27T08:58:49;9.27;;;7.80;;
17451;SDS011;8843;48.838;9.324;2022-11-27T09:01:17;10.57;;;7.33;;
17451;SDS011;8843;48.838;9.324;2022-11-27T09:03:45;8.87;;;7.03;;
17451;SDS011;8843;48.838;9.324;2022-11-27T09:06:14;10.13;;;7.17;;
17451;SDS011;8843;48.838;9.324;2022-11-27T09:08:42;9.57;;;7.77;;
17451;SDS011;8843;48.838;9.324;2022-11-27T09:11:11;13.17;;;8.77;;
17451;SDS011;8843;48.838;9.324;2022-11-27T09:13:39;9.10;;;7.97;;
17451;SDS011;8843;48.838;9.324;2022-11-27T09:16:07;10.03;;;7.90;;
17451;SDS011;8843;48.838;9.324;2022-11-27T09:18:36;11.37;;;8.23;;
17451;SDS011;8843;48.838;9.324;2022-11-27T09:21:05;9.47;;;8.00;;
17451;SDS011;8843;48.838;9.324;2022-11-27T09:23:33;9.30;;;7.47;;
17451;SDS011;8843;48.838;9.324;2022-11-27T09:26:02;11.03;;;8.90;;
17451;SDS011;8843;48.838;9.324;2022-11-27T09:28:32;9.27;;;8.13;;
17451;SDS011;8843;48.838;9.324;2022-11-27T09:31:00;8.53;;;7.63;;
17451;SDS011;8843;48.838;9.324;2022-11-27T09:33:29;10.90;;;8.20;;
17451;SDS011;8843;48.838;9.324;2022-11-27T09:35:57;10.57;;;7.43;;
17451;SDS011;8843;48.838;9.324;2022-11-27T09:38:28;9.53;;;7.60;;
17451;SDS011;8843;48.838;9.324;2022-11-27T09:40:58;10.57;;;8.23;;
17451;SDS011;8843;48.838;9.324;2022-11-27T09:43:28;9.27;;;8.10;;
17451;SDS011;8843;48.838;9.324;2022-11-27T09:46:01;8.77;;;6.47;;
17451;SDS011;8843;48.838;9.324;2022-11-27T09:48:32;9.40;;;6.90;;
17451;SDS011;8843;48.838;9.324;2022-11-27T09:51:05;10.07;;;6.87;;
17451;SDS011;8843;48.838;9.324;2022-11-27T09:53:38;11.07;;;8.03;;
17451;SDS011;8843;48.838;9.324;2022-11-27T09:56:11;9.17;;;7.37;;
17451;SDS011;8843;48.838;9.324;2022-11-27T09:58:42;9.63;;;6.67;;
17451;SDS011;8843;48.838;9.324;2022-11-27T10:01:14;9.70;;;6.43;;
17451;SDS011;8843;48.838;9.324;2022-11-27T10:03:43;10.43;;;6.63;;
17451;SDS011;8843;48.838;9.324;2022-11-27T10:06:14;8.10;;;6.27;;
17451;SDS011;8843;48.838;9.324;2022-11-27T10:08:51;7.50;;;6.70;;
17451;SDS011;8843;48.838;9.324;2022-11-27T10:11:29;8.13;;;7.00;;
17451;SDS011;8843;48.838;9.324;2022-11-27T10:14:03;8.93;;;6.80;;
17451;SDS011;8843;48.838;9.324;2022-11-27T10:16:44;9.03;;;6.87;;
17451;SDS011;8843;48.838;9.324;2022-11-27T10:19:19;4.93;;;4.43;;
17451;SDS011;8843;48.838;9.324;2022-11-27T10:21:54;6.20;;;4.90;;
17451;SDS011;8843;48.838;9.324;2022-11-27T10:24:27;5.10;;;3.87;;
17451;SDS011;8843;48.838;9.324;2022-11-27T10:27:02;4.33;;;3.37;;
17451;SDS011;8843;48.838;9.324;2022-11-27T10:29:36;3.33;;;2.87;;
17451;SDS011;8843;48.838;9.324;2022-11-27T10:32:10;3.73;;;2.90;;
17451;SDS011;8843;48.838;9.324;2022-11-27T10:34:40;3.53;;;3.00;;
17451;SDS011;8843;48.838;9.324;2022-11-27T10:37:13;7.17;;;3.67;;
17451;SDS011;8843;48.838;9.324;2022-11-27T10:39:49;6.20;;;3.50;;
17451;SDS011;8843;48.838;9.324;2022-11-27T10:42:23;10.63;;;4.20;;
17451;SDS011;8843;48.838;9.324;2022-11-27T10:44:56;4.07;;;3.17;;
17451;SDS011;8843;48.838;9.324;2022-11-27T10:47:27;4.47;;;3.10;;
17451;SDS011;8843;48.838;9.324;2022-11-27T10:49:54;4.83;;;3.80;;
17451;SDS011;8843;48.838;9.324;2022-11-27T10:52:23;5.03;;;3.37;;
17451;SDS011;8843;48.838;9.324;2022-11-27T10:54:53;3.53;;;3.23;;
17451;SDS011;8843;48.838;9.324;2022-11-27T10:57:27;4.53;;;3.27;;
17451;SDS011;8843;48.838;9.324;2022-11-27T11:00:18;3.50;;;2.90;;
17451;SDS011;8843;48.838;9.324;2022-11-27T11:02:48;3.37;;;2.60;;
17451;SDS011;8843;48.838;9.324;2022-11-27T11:05:25;4.10;;;2.90;;
17451;SDS011;8843;48.838;9.324;2022-11-27T11:07:54;4.00;;;2.50;;
17451;SDS011;8843;48.838;9.324;2022-11-27T11:10:24;3.20;;;2.47;;
17451;SDS011;8843;48.838;9.324;2022-11-27T11:15:50;4.10;;;2.23;;
17451;SDS011;8843;48.838;9.324;2022-11-27T11:18:21;2.63;;;2.43;;
17451;SDS011;8843;48.838;9.324;2022-11-27T11:20:49;3.67;;;2.20;;
17451;SDS011;8843;48.838;9.324;2022-11-27T11:23:20;6.17;;;2.73;;
17451;SDS011;8843;48.838;9.324;2022-11-27T11:25:54;6.83;;;3.10;;
17451;SDS011;8843;48.838;9.324;2022-11-27T11:28:24;3.97;;;3.20;;
17451;SDS011;8843;48.838;9.324;2022-11-27T11:30:53;2.97;;;2.73;;
17451;SDS011;8843;48.838;9.324;2022-11-27T11:33:25;3.73;;;2.93;;
17451;SDS011;8843;48.838;9.324;2022-11-27T11:35:53;2.60;;;2.40;;
17451;SDS011;8843;48.838;9.324;2022-11-27T11:38:33;2.80;;;2.50;;
17451;SDS011;8843;48.838;9.324;2022-11-27T11:41:03;3.80;;;2.10;;
17451;SDS011;8843;48.838;9.324;2022-11-27T11:43:31;3.23;;;2.53;;
17451;SDS011;8843;48.838;9.324;2022-11-27T11:46:04;3.33;;;2.03;;
17451;SDS011;8843;48.838;9.324;2022-11-27T11:48:35;4.47;;;2.30;;
17451;SDS011;8843;48.838;9.324;2022-11-27T11:51:05;2.57;;;2.20;;
17451;SDS011;8843;48.838;9.324;2022-11-27T11:53:38;3.10;;;2.40;;
17451;SDS011;8843;48.838;9.324;2022-11-27T11:56:12;3.57;;;2.20;;
17451;SDS011;8843;48.838;9.324;2022-11-27T11:58:53;3.50;;;2.53;;
17451;SDS011;8843;48.838;9.324;2022-11-27T12:01:30;4.07;;;2.30;;
17451;SDS011;8843;48.838;9.324;2022-11-27T12:04:29;2.93;;;2.50;;
17451;SDS011;8843;48.838;9.324;2022-11-27T12:07:09;4.53;;;2.43;;
17451;SDS011;8843;48.838;9.324;2022-11-27T12:09:45;6.93;;;2.67;;
17451;SDS011;8843;48.838;9.324;2022-11-27T12:12:24;4.67;;;2.50;;
17451;SDS011;8843;48.838;9.324;2022-11-27T12:15:03;3.17;;;2.27;;
17451;SDS011;8843;48.838;9.324;2022-11-27T12:17:42;5.07;;;2.90;;
17451;SDS011;8843;48.838;9.324;2022-11-27T12:20:19;2.53;;;2.23;;
17451;SDS011;8843;48.838;9.324;2022-11-27T12:23:15;3.03;;;2.40;;
17451;SDS011;8843;48.838;9.324;2022-11-27T12:25:53;3.17;;;2.17;;
17451;SDS011;8843;48.838;9.324;2022-11-27T12:28:41;3.30;;;2.47;;
17451;SDS011;8843;48.838;9.324;2022-11-27T12:31:21;3.73;;;2.50;;
17451;SDS011;8843;48.838;9.324;2022-11-27T12:34:00;3.63;;;2.90;;
17451;SDS011;8843;48.838;9.324;2022-11-27T12:36:37;2.97;;;2.67;;
17451;SDS011;8843;48.838;9.324;2022-11-27T12:39:15;4.23;;;2.40;;
17451;SDS011;8843;48.838;9.324;2022-11-27T12:41:59;3.63;;;2.43;;
17451;SDS011;8843;48.838;9.324;2022-11-27T12:44:36;3.87;;;2.60;;
17451;SDS011;8843;48.838;9.324;2022-11-27T12:47:14;2.70;;;2.13;;
17451;SDS011;8843;48.838;9.324;2022-11-27T12:49:47;4.63;;;2.30;;
17451;SDS011;8843;48.838;9.324;2022-11-27T12:52:21;4.07;;;2.30;;
17451;SDS011;8843;48.838;9.324;2022-11-27T12:54:52;3.47;;;2.23;;
17451;SDS011;8843;48.838;9.324;2022-11-27T12:57:25;2.23;;;2.03;;
17451;SDS011;8843;48.838;9.324;2022-11-27T12:59:59;2.90;;;2.27;;
17451;SDS011;8843;48.838;9.324;2022-11-27T13:02:32;2.97;;;1.90;;
17451;SDS011;8843;48.838;9.324;2022-11-27T13:05:02;2.73;;;2.37;;
17451;SDS011;8843;48.838;9.324;2022-11-27T13:07:35;4.53;;;2.30;;
17451;SDS011;8843;48.838;9.324;2022-11-27T13:10:10;2.50;;;2.30;;
17451;SDS011;8843;48.838;9.324;2022-11-27T13:12:45;3.03;;;2.10;;
17451;SDS011;8843;48.838;9.324;2022-11-27T13:15:18;5.60;;;2.30;;
17451;SDS011;8843;48.838;9.324;2022-11-27T13:17:50;4.50;;;2.43;;
17451;SDS011;8843;48.838;9.324;2022-11-27T13:20:27;2.10;;;1.97;;
17451;SDS011;8843;48.838;9.324;2022-11-27T13:23:01;3.50;;;2.20;;
17451;SDS011;8843;48.838;9.324;2022-11-27T13:25:27;2.57;;;2.00;;
17451;SDS011;8843;48.838;9.324;2022-11-27T13:27:57;2.63;;;2.30;;
17451;SDS011;8843;48.838;9.324;2022-11-27T13:30:26;4.57;;;2.80;;
17451;SDS011;8843;48.838;9.324;2022-11-27T13:32:58;2.87;;;2.17;;
17451;SDS011;8843;48.838;9.324;2022-11-27T13:35:28;3.00;;;2.07;;
17451;SDS011;8843;48.838;9.324;2022-11-27T13:37:57;2.93;;;1.77;;
17451;SDS011;8843;48.838;9.324;2022-11-27T13:40:35;4.47;;;2.20;;
17451;SDS011;8843;48.838;9.324;2022-11-27T13:43:05;2.53;;;1.80;;
17451;SDS011;8843;48.838;9.324;2022-11-27T13:45:44;3.23;;;2.30;;
17451;SDS011;8843;48.838;9.324;2022-11-27T13:50:59;2.40;;;1.90;;
17451;SDS011;8843;48.838;9.324;2022-11-27T13:53:32;2.70;;;2.10;;
17451;SDS011;8843;48.838;9.324;2022-11-27T13:56:00;3.93;;;2.47;;
17451;SDS011;8843;48.838;9.324;2022-11-27T13:58:28;2.30;;;1.97;;
17451;SDS011;8843;48.838;9.324;2022-11-27T14:00:57;2.30;;;1.93;;
17451;SDS011;8843;48.838;9.324;2022-11-27T14:03:25;2.37;;;2.00;;
17451;SDS011;8843;48.838;9.324;2022-11-27T14:05:53;2.00;;;1.80;;
17451;SDS011;8843;48.838;9.324;2022-11-27T14:08:20;2.77;;;1.70;;
17451;SDS011;8843;48.838;9.324;2022-11-27T14:10:52;3.47;;;2.30;;
17451;SDS011;8843;48.838;9.324;2022-11-27T14:13:31;1.93;;;1.70;;
17451;SDS011;8843;48.838;9.324;2022-11-27T14:16:01;1.67;;;1.57;;
17451;SDS011;8843;48.838;9.324;2022-11-27T14:18:32;2.47;;;1.80;;
17451;SDS011;8843;48.838;9.324;2022-11-27T14:21:00;3.53;;;2.13;;
17451;SDS011;8843;48.838;9.324;2022-11-27T14:23:29;1.80;;;1.63;;
17451;SDS011;8843;48.838;9.324;2022-11-27T14:26:04;2.43;;;1.83;;
17451;SDS011;8843;48.838;9.324;2022-11-27T14:28:34;2.43;;;1.90;;
17451;SDS011;8843;48.838;9.324;2022-11-27T14:31:02;3.00;;;2.60;;
17451;SDS011;8843;48.838;9.324;2022-11-27T14:33:30;2.00;;;1.70;;
17451;SDS011;8843;48.838;9.324;2022-11-27T14:36:00;2.17;;;1.93;;
17451;SDS011;8843;48.838;9.324;2022-11-27T14:38:29;2.00;;;1.80;;
17451;SDS011;8843;48.838;9.324;2022-11-27T14:41:07;2.80;;;2.13;;
17451;SDS011;8843;48.838;9.324;2022-11-27T14:43:35;3.43;;;2.10;;
17451;SDS011;8843;48.838;9.324;2022-11-27T14:46:02;2.40;;;2.07;;
17451;SDS011;8843;48.838;9.324;2022-11-27T14:48:33;3.70;;;2.17;;
17451;SDS011;8843;48.838;9.324;2022-11-27T14:51:09;3.07;;;2.53;;
17451;SDS011;8843;48.838;9.324;2022-11-27T14:53:40;2.50;;;2.00;;
17451;SDS011;8843;48.838;9.324;2022-11-27T14:56:09;4.20;;;2.03;;
17451;SDS011;8843;48.838;9.324;2022-11-27T14:58:37;2.37;;;2.00;;
17451;SDS011;8843;48.838;9.324;2022-11-27T15:01:06;2.73;;;2.20;;
17451;SDS011;8843;48.838;9.324;2022-11-27T15:03:33;2.97;;;2.37;;
17451;SDS011;8843;48.838;9.324;2022-11-27T15:06:02;2.60;;;2.40;;
17451;SDS011;8843;48.838;9.324;2022-11-27T15:08:32;2.80;;;2.50;;
17451;SDS011;8843;48.838;9.324;2022-11-27T15:11:01;3.20;;;2.20;;
17451;SDS011;8843;48.838;9.324;2022-11-27T15:13:31;5.17;;;2.40;;
17451;SDS011;8843;48.838;9.324;2022-11-27T15:16:01;3.03;;;2.50;;
17451;SDS011;8843;48.838;9.324;2022-11-27T15:18:31;4.73;;;2.40;;
17451;SDS011;8843;48.838;9.324;2022-11-27T15:21:01;2.70;;;2.37;;
17451;SDS011;8843;48.838;9.324;2022-11-27T15:23:34;3.23;;;2.37;;
17451;SDS011;8843;48.838;9.324;2022-11-27T15:26:03;4.60;;;2.47;;